Terminal Aerodrome Forecast
Issued by NWS Anchorage, AK

Current Version | Previous Version | Text Only | Print | Product List | Glossary On
Versions: 1 2 3 4 5 6 7 8 9 10 11 12 13 14 15 16 17 18 19 20 21 22 23 24 25 26 27 28 29 30 31 32 33 34 35 36 37 38
000
FTAK31 PANC 102329
TAFANC
TAF
PANC 102329Z 1100/1206 36005KT 6SM -RA FEW006 SCT050 OVC100
      TEMPO 1100/1104 5SM -RA BR
     FM111300 35005KT P6SM -RA OVC060 WS020/14040KT
     FM111600 14015G25KT P6SM VCSH BKN060 BKN120=

USA.gov is the U.S. government's official web portal to all federal, state and local government web resources and services.